This is the latest recevied weather packets stored in our database for station/object OK1JRA-6. If no packets are shown the sender has not sent any weather packets the latest 1 day(s).
| Time | Temp. | Humidity | Pressure | Rain* | Wind** | Luminosity | Snow |
|---|---|---|---|---|---|---|---|
| 1778057285 | 21.11° C | 49% | 1007.9 hPa | 0 mm | - | - | - |
| 1778056673 | 20° C | 53% | 1007.8 hPa | 0 mm | - | - | - |
| 1778055448 | 18.33° C | 58% | 1007.8 hPa | 0 mm | - | - | - |
| 1778055142 | 18.33° C | 59% | 1007.8 hPa | 0 mm | - | - | - |
| 1778054836 | 18.89° C | 59% | 1007.7 hPa | 0 mm | - | - | - |
| 1778054530 | 18.33° C | 63% | 1007.6 hPa | 0 mm | - | - | - |
| 1778053611 | 16.11° C | 67% | 1007.7 hPa | 0 mm | - | - | - |
| 1778053305 | 16.11° C | 68% | 1007.8 hPa | 0 mm | - | - | - |
| 1778052386 | 15.56° C | 70% | 1007.9 hPa | 0 mm | - | - | - |
| 1778052080 | 15.56° C | 71% | 1007.9 hPa | 0 mm | - | - | - |
| 1778050549 | 15° C | 73% | 1007.9 hPa | 0 mm | - | - | - |
| 1778050243 | 15° C | 74% | 1007.9 hPa | 0 mm | - | - | - |
| 1778049937 | 15° C | 74% | 1007.8 hPa | 0 mm | - | - | - |
| 1778049018 | 13.89° C | 81% | 1007.9 hPa | 0 mm | - | - | - |
| 1778048712 | 13.89° C | 81% | 1007.9 hPa | 0 mm | - | - | - |
| 1778048100 | 13.33° C | 82% | 1007.8 hPa | 0 mm | - | - | - |
| 1778047794 | 13.33° C | 82% | 1007.8 hPa | 0 mm | - | - | - |
| 1778047181 | 13.33° C | 83% | 1007.8 hPa | 0 mm | - | - | - |
| 1778046875 | 12.78° C | 83% | 1007.7 hPa | 0 mm | - | - | - |
| 1778046569 | 12.78° C | 83% | 1007.6 hPa | 0 mm | - | - | - |
| 1778046263 | 12.78° C | 83% | 1007.5 hPa | 0 mm | - | - | - |
| 1778045957 | 12.78° C | 83% | 1007.4 hPa | 0 mm | - | - | - |
| 1778045038 | 12.22° C | 84% | 1007.7 hPa | 0 mm | - | - | - |
| 1778044732 | 12.22° C | 84% | 1007.7 hPa | 0 mm | - | - | - |
| 1778042895 | 10.56° C | 84% | 1007.8 hPa | 0 mm | - | - | - |
* Rain latest hour (hover to see other rain measurements)
** Current wind speed in m/s (hover to see current wind gust speed)